Terminal Aerodrome Forecast
Issued by NWS Wilmington, OH

Current Version | Previous Version | Graphics & Text | Print | Product List | Glossary On
Versions: 1 2 3 4 5 6 7 8 9 10 11 12 13 14 15 16 17 18 19 20 21 22 23 24 25 26 27 28 29
000
FTUS41 KILN 250500
TAFDAY
TAF
KDAY 250522Z 2506/2606 18010KT P6SM SCT100 BKN200
     FM250900 19013G19KT P6SM VCSH BKN070
     FM251300 21020G28KT P6SM SCT050 BKN080
     FM251800 22015G24KT P6SM VCSH BKN050
     FM260000 20006KT P6SM BKN080=

USA.gov is the U.S. government's official web portal to all federal, state and local government web resources and services.